This is the latest recevied weather packets stored in our database for station/object WX4SGA. If no packets are shown the sender has not sent any weather packets the latest 10 day(s).
| Time | Temp. | Humidity | Pressure | Rain* | Wind** | Luminosity | Snow |
|---|---|---|---|---|---|---|---|
| 1777504353 | 31.67° C | 38% | 1009.1 hPa | 0 mm | - | 33 W/m² | - |
| 1777504047 | 31.67° C | 38% | 1008.8 hPa | 0 mm | - | 53 W/m² | - |
| 1777503744 | 32.22° C | 38% | 1008.8 hPa | 0 mm | - | 64 W/m² | - |
| 1777503441 | 32.22° C | 38% | 1008.5 hPa | 0 mm | - | 63 W/m² | - |
| 1777503136 | 31.67° C | 44% | 1008.8 hPa | 0 mm | - | 88 W/m² | - |
| 1777502834 | 31.67° C | 42% | 1008.8 hPa | 0 mm | - | 72 W/m² | - |
| 1777502531 | 32.22° C | 40% | 1008.8 hPa | 0 mm | - | 79 W/m² | - |
| 1777502229 | 32.22° C | 39% | 1009.1 hPa | 0 mm | - | 65 W/m² | - |
| 1777501925 | 32.22° C | 39% | 1009.1 hPa | 0 mm | - | 80 W/m² | - |
| 1777501622 | 32.22° C | 39% | 1009.1 hPa | 0 mm | - | 101 W/m² | - |
| 1777501319 | 32.22° C | 41% | 1009.1 hPa | 0 mm | - | 97 W/m² | - |
| 1777501017 | 32.78° C | 39% | 1009.1 hPa | 0 mm | - | 99 W/m² | - |
| 1777500714 | 32.22° C | 41% | 1009.5 hPa | 0 mm | - | 225 W/m² | - |
| 1777500411 | 32.22° C | 40% | 1009.1 hPa | 0 mm | - | 98 W/m² | - |
| 1777500107 | 32.22° C | 39% | 1009.1 hPa | 0 mm | - | 259 W/m² | - |
| 1777499804 | 33.33° C | 37% | 1009.1 hPa | 0 mm | - | 66 W/m² | - |
| 1777499500 | 33.89° C | 36% | 1009.1 hPa | 0 mm | - | 305 W/m² | - |
| 1777499199 | 33.89° C | 36% | 1009.1 hPa | 0 mm | - | 322 W/m² | - |
| 1777498895 | 32.78° C | 37% | 1009.1 hPa | 0 mm | - | 354 W/m² | - |
| 1777498592 | 33.89° C | 37% | 1009.1 hPa | 0 mm | - | 369 W/m² | - |
| 1777498288 | 33.33° C | 37% | 1009.1 hPa | 0 mm | - | 381 W/m² | - |
| 1777497987 | 33.89° C | 36% | 1009.1 hPa | 0 mm | - | 393 W/m² | - |
| 1777497682 | 33.89° C | 36% | 1009.1 hPa | 0 mm | - | 410 W/m² | - |
| 1777497380 | 33.89° C | 36% | 1009.1 hPa | 0 mm | - | 425 W/m² | - |
| 1777497075 | 33.89° C | 36% | 1009.1 hPa | 0 mm | - | 435 W/m² | - |
* Rain latest hour (hover to see other rain measurements)
** Current wind speed in m/s (hover to see current wind gust speed)